Time;durP1;ratioP1;P1;durP2;ratioP2;P2;SDS_P1;SDS_P2;PMS_P1;PMS_P2;Temp;Humidity;BMP_temperature;BMP_pressure;BME280_temperature;BME280_humidity;BME280_pressure;Samples;Min_cycle;Max_cycle;Signal;HPM_P1;HPM_P2
2022/10/01 00:01:00;;;;;;;22.25;15.75;;;;;;;13.11;61.55;100314.81;5052819;28;20040;-62
2022/10/01 00:03:28;;;;;;;22.67;15.38;;;;;;;13.07;61.70;100314.91;5062613;28;20036;-61
2022/10/01 00:06:01;;;;;;;20.05;14.63;;;;;;;13.04;61.87;100309.72;5058829;28;20487;-61
2022/10/01 00:08:29;;;;;;;21.60;15.68;;;;;;;13.01;61.82;100309.84;5054194;28;20127;-62
2022/10/01 00:10:55;;;;;;;20.38;14.93;;;;;;;12.99;62.06;100306.38;5047780;28;20033;-62
2022/10/01 00:13:21;;;;;;;23.40;16.15;;;;;;;12.95;62.02;100310.03;5059313;28;20036;-63
2022/10/01 00:15:46;;;;;;;22.75;15.50;;;;;;;12.93;62.16;100300.47;5063579;28;20043;-62
2022/10/01 00:18:12;;;;;;;22.85;14.88;;;;;;;12.92;62.11;100301.34;5057657;28;20476;-62
2022/10/01 00:20:42;;;;;;;25.33;15.63;;;;;;;12.46;63.29;100306.31;5061444;28;20147;-62
2022/10/01 00:23:11;;;;;;;19.98;15.40;;;;;;;12.32;63.81;100298.78;5069994;28;20094;-62
2022/10/01 00:25:37;;;;;;;21.95;15.45;;;;;;;13.20;61.45;100304.78;5066037;28;20029;-62
2022/10/01 00:28:03;;;;;;;23.02;15.52;;;;;;;12.74;61.99;100294.91;5049546;28;20513;-63
2022/10/01 00:30:28;;;;;;;24.23;15.82;;;;;;;12.37;63.44;100298.69;5048103;28;20107;-62
2022/10/01 00:32:54;;;;;;;23.50;16.13;;;;;;;12.28;63.81;100296.31;5066603;28;20157;-62
2022/10/01 00:35:21;;;;;;;27.25;18.60;;;;;;;12.22;64.10;100296.50;5069972;28;20040;-61
2022/10/01 00:37:49;;;;;;;25.60;17.35;;;;;;;12.27;63.93;100287.53;5069362;28;20132;-63
2022/10/01 00:40:16;;;;;;;24.40;17.05;;;;;;;12.30;63.74;100291.88;5070379;28;20141;-62
2022/10/01 00:42:42;;;;;;;22.98;15.50;;;;;;;12.26;63.94;100282.34;5050712;28;20087;-62
2022/10/01 00:45:10;;;;;;;19.65;14.70;;;;;;;12.23;63.82;100279.78;5054332;28;20060;-61
2022/10/01 00:47:43;;;;;;;20.80;14.55;;;;;;;12.20;63.82;100279.88;5052400;28;20048;-62
2022/10/01 00:50:08;;;;;;;23.67;14.82;;;;;;;12.14;64.03;100287.97;5054161;28;20036;-62
2022/10/01 00:52:39;;;;;;;22.10;15.23;;;;;;;12.10;64.03;100286.34;5054124;28;20502;-62
2022/10/01 00:55:18;;;;;;;24.48;16.38;;;;;;;11.98;63.95;100283.16;5054233;28;20106;-61
2022/10/01 00:57:44;;;;;;;24.58;16.98;;;;;;;11.92;64.41;100278.03;5054193;28;20472;-61
2022/10/01 01:00:12;;;;;;;24.63;16.42;;;;;;;11.83;64.54;100283.56;5062716;28;20094;-62
2022/10/01 01:02:38;;;;;;;22.50;15.73;;;;;;;11.78;64.50;100277.56;5050234;28;20041;-61
2022/10/01 01:05:04;;;;;;;28.20;19.13;;;;;;;11.64;64.79;100283.19;5055541;28;20045;-62
2022/10/01 01:07:32;;;;;;;22.35;16.80;;;;;;;11.62;64.77;100284.16;5055265;28;20036;-62
2022/10/01 01:09:58;;;;;;;25.20;17.25;;;;;;;11.64;64.85;100287.59;5051286;28;20063;-62
2022/10/01 01:12:46;;;;;;;23.75;16.70;;;;;;;11.62;65.06;100284.16;5058953;28;20037;-63
2022/10/01 01:15:52;;;;;;;26.20;17.70;;;;;;;11.45;65.71;100288.09;5052001;28;20125;-62
2022/10/01 01:18:22;;;;;;;22.92;16.58;;;;;;;11.45;65.25;100279.31;4994606;28;20151;-62
2022/10/01 01:21:00;;;;;;;22.63;15.55;;;;;;;11.39;65.46;100287.41;5054512;28;20037;-61
2022/10/01 01:23:37;;;;;;;25.88;17.98;;;;;;;11.36;65.45;100293.59;5058380;28;20045;-61
2022/10/01 01:26:30;;;;;;;21.42;15.50;;;;;;;11.40;65.46;100284.72;5047677;28;20029;-62
2022/10/01 01:29:06;;;;;;;23.13;16.38;;;;;;;11.35;65.48;100281.34;5046548;28;20040;-60
2022/10/01 01:31:40;;;;;;;22.35;15.57;;;;;;;11.35;65.68;100273.47;5050115;28;20045;-62
2022/10/01 01:34:11;;;;;;;23.30;16.83;;;;;;;11.34;65.82;100279.63;5058180;28;20044;-60
2022/10/01 01:36:38;;;;;;;21.70;15.68;;;;;;;11.33;65.94;100275.28;5058041;28;20091;-62
2022/10/01 01:39:09;;;;;;;23.15;15.50;;;;;;;11.34;65.87;100271.75;5059534;28;20472;-63
2022/10/01 01:41:39;;;;;;;20.83;15.70;;;;;;;11.35;65.72;100276.09;5057312;28;20037;-62
2022/10/01 01:44:09;;;;;;;24.45;16.60;;;;;;;11.32;66.27;100273.53;5058212;28;20049;-62
2022/10/01 01:46:40;;;;;;;24.85;16.05;;;;;;;11.35;65.98;100273.47;5060073;28;20059;-62
2022/10/01 01:49:06;;;;;;;23.55;16.42;;;;;;;11.34;66.15;100269.97;5068057;28;20052;-62
2022/10/01 01:51:44;;;;;;;24.58;16.52;;;;;;;11.33;66.57;100268.25;5058100;28;20191;-62
2022/10/01 01:54:09;;;;;;;24.92;17.80;;;;;;;11.38;66.34;100276.00;5053871;28;20439;-62
2022/10/01 01:56:36;;;;;;;22.85;15.68;;;;;;;11.41;66.22;100273.31;5060037;28;20037;-62
2022/10/01 01:59:02;;;;;;;21.88;15.02;;;;;;;11.43;66.30;100273.25;5056089;28;20041;-62
2022/10/01 02:01:31;;;;;;;25.15;18.30;;;;;;;11.45;66.41;100282.84;5066305;28;20067;-60
2022/10/01 02:03:56;;;;;;;28.38;19.60;;;;;;;11.49;66.16;100273.97;5058844;28;20080;-62
2022/10/01 02:06:52;;;;;;;27.92;18.98;;;;;;;11.51;65.93;100276.53;5058482;28;20139;-61
2022/10/01 02:09:32;;;;;;;26.70;17.02;;;;;;;11.50;65.98;100266.94;5055076;28;20041;-62
2022/10/01 02:12:13;;;;;;;25.23;16.88;;;;;;;11.49;65.98;100263.44;5063938;28;20397;-61
2022/10/01 02:14:53;;;;;;;23.35;17.05;;;;;;;11.50;66.28;100269.56;5053445;28;20381;-61
2022/10/01 02:17:31;;;;;;;26.40;17.85;;;;;;;11.53;66.18;100264.19;5047724;28;20038;-61
2022/10/01 02:20:25;;;;;;;24.73;17.65;;;;;;;11.53;66.15;100269.47;5036067;28;20442;-61
2022/10/01 02:22:55;;;;;;;23.00;16.73;;;;;;;11.49;66.16;100263.44;5036634;28;20388;-61
2022/10/01 02:25:25;;;;;;;25.08;17.95;;;;;;;11.51;66.14;100266.00;5040049;28;20037;-61
2022/10/01 02:28:00;;;;;;;28.88;18.75;;;;;;;11.47;66.26;100261.75;5055936;28;20029;-62
2022/10/01 02:30:28;;;;;;;24.67;17.70;;;;;;;11.46;66.26;100253.00;5054585;28;20040;-61
2022/10/01 02:32:57;;;;;;;25.38;17.80;;;;;;;11.47;66.34;100265.22;5042457;28;20120;-62
2022/10/01 02:35:24;;;;;;;26.23;16.73;;;;;;;11.44;66.56;100259.19;5055830;28;20038;-62
2022/10/01 02:37:52;;;;;;;23.48;16.88;;;;;;;11.43;66.35;100249.59;5056073;28;20037;-62
2022/10/01 02:40:25;;;;;;;24.83;17.00;;;;;;;11.45;66.12;100255.66;5055863;28;20048;-62
2022/10/01 02:42:54;;;;;;;24.67;17.55;;;;;;;11.46;66.09;100255.63;5048667;28;20045;-62
2022/10/01 02:45:23;;;;;;;28.55;18.80;;;;;;;11.43;66.34;100250.44;5055347;28;20122;-61
2022/10/01 02:47:57;;;;;;;25.77;17.20;;;;;;;11.43;66.25;100252.22;5043112;28;20049;-61
2022/10/01 02:50:29;;;;;;;27.80;18.98;;;;;;;11.43;66.29;100244.31;5035480;28;20025;-61
2022/10/01 02:53:01;;;;;;;24.30;17.42;;;;;;;11.44;66.23;100252.16;5035588;28;20473;-61
2022/10/01 02:55:35;;;;;;;25.98;17.60;;;;;;;11.40;66.52;100247.88;5052592;28;20043;-61
2022/10/01 02:58:00;;;;;;;27.15;18.48;;;;;;;11.43;66.24;100247.81;5065872;28;20465;-62
2022/10/01 03:00:27;;;;;;;23.75;17.20;;;;;;;11.43;66.35;100242.53;5070430;28;20115;-62
2022/10/01 03:02:53;;;;;;;24.67;17.77;;;;;;;11.45;66.13;100234.59;5067336;28;20036;-61
2022/10/01 03:05:19;;;;;;;24.40;17.00;;;;;;;11.45;66.17;100239.84;5055702;28;20423;-61
2022/10/01 03:07:45;;;;;;;26.05;17.15;;;;;;;11.47;66.03;100241.56;5057363;28;20052;-62
2022/10/01 03:10:12;;;;;;;26.15;18.33;;;;;;;11.48;66.02;100239.78;5053786;28;20028;-62
2022/10/01 03:12:40;;;;;;;24.33;17.20;;;;;;;11.51;66.09;100231.81;5070225;28;20044;-62
2022/10/01 03:15:06;;;;;;;24.52;17.23;;;;;;;11.52;65.95;100234.38;5056470;28;20044;-62
2022/10/01 03:17:31;;;;;;;25.67;18.17;;;;;;;11.52;65.83;100226.50;5056207;28;20048;-62
2022/10/01 03:19:56;;;;;;;26.00;18.25;;;;;;;11.60;65.71;100227.13;5053878;28;20476;-61
2022/10/01 03:22:22;;;;;;;28.30;18.33;;;;;;;11.63;65.68;100220.94;5057335;28;20102;-60
2022/10/01 03:24:51;;;;;;;28.00;19.00;;;;;;;11.65;65.48;100221.78;5064006;28;20090;-61
2022/10/01 03:27:17;;;;;;;26.48;18.63;;;;;;;11.63;65.41;100218.31;5070365;28;20075;-61
2022/10/01 03:29:43;;;;;;;33.55;21.83;;;;;;;11.82;65.23;100214.25;5071284;28;20056;-62
2022/10/01 03:32:09;;;;;;;31.17;21.25;;;;;;;11.90;64.54;100207.94;5071277;28;20037;-62
2022/10/01 03:34:35;;;;;;;26.17;18.15;;;;;;;11.98;64.30;100217.31;5065799;28;20029;-62
2022/10/01 03:37:00;;;;;;;24.25;16.75;;;;;;;11.97;64.15;100212.06;5052336;28;20060;-62
2022/10/01 03:39:26;;;;;;;26.55;19.23;;;;;;;11.98;64.17;100200.66;5054690;28;20094;-62
2022/10/01 03:41:51;;;;;;;25.95;18.60;;;;;;;11.87;64.28;100203.59;5056319;28;20044;-61
2022/10/01 03:44:17;;;;;;;28.67;18.55;;;;;;;11.68;64.76;100195.34;5056906;28;20049;-61
2022/10/01 03:46:42;;;;;;;24.73;17.50;;;;;;;11.59;64.95;100199.09;5050374;28;20037;-61
2022/10/01 03:49:09;;;;;;;26.30;19.10;;;;;;;11.50;65.15;100185.38;5052409;28;20029;-61
2022/10/01 03:51:36;;;;;;;26.52;19.48;;;;;;;11.39;65.28;100183.03;5044206;28;20037;-62
2022/10/01 03:54:02;;;;;;;24.58;17.55;;;;;;;11.32;65.41;100198.09;5044982;28;20033;-61
2022/10/01 03:56:28;;;;;;;27.00;19.55;;;;;;;11.23;65.52;100200.13;5060053;28;20098;-61
2022/10/01 03:58:53;;;;;;;30.85;21.83;;;;;;;11.07;65.88;100190.03;5047778;28;20462;-61
2022/10/01 04:01:19;;;;;;;29.20;20.38;;;;;;;11.01;66.05;100186.69;5056951;28;20134;-61
2022/10/01 04:03:44;;;;;;;31.77;22.52;;;;;;;10.95;66.00;100194.75;5052338;28;20029;-61
2022/10/01 04:06:10;;;;;;;34.38;24.70;;;;;;;10.85;66.35;100194.13;5054563;28;20061;-62
2022/10/01 04:08:37;;;;;;;26.60;19.10;;;;;;;10.76;66.66;100187.34;5048893;28;20051;-61
2022/10/01 04:11:02;;;;;;;25.85;18.83;;;;;;;10.80;66.66;100193.38;5053786;28;20029;-63
2022/10/01 04:13:28;;;;;;;25.02;18.55;;;;;;;10.78;66.34;100189.94;5035318;28;20045;-62
2022/10/01 04:15:54;;;;;;;24.85;18.63;;;;;;;10.75;66.36;100183.00;5047186;28;20083;-62
2022/10/01 04:18:20;;;;;;;23.63;16.55;;;;;;;10.75;66.40;100190.88;5055475;28;20064;-62
2022/10/01 04:20:46;;;;;;;23.95;17.55;;;;;;;10.69;66.42;100192.78;5068736;28;20068;-61
2022/10/01 04:23:12;;;;;;;29.50;20.95;;;;;;;10.58;66.74;100195.69;5064461;28;20041;-63
2022/10/01 04:25:37;;;;;;;27.27;19.88;;;;;;;10.57;66.61;100186.06;5053187;28;20040;-61
2022/10/01 04:28:06;;;;;;;32.47;23.55;;;;;;;10.40;66.88;100191.72;5063517;28;20029;-62
2022/10/01 04:30:35;;;;;;;32.95;23.20;;;;;;;10.41;66.93;100190.81;5055096;28;20369;-62
2022/10/01 04:33:00;;;;;;;32.22;22.98;;;;;;;10.38;66.72;100192.69;5053636;28;20472;-62
2022/10/01 04:35:26;;;;;;;26.55;18.75;;;;;;;10.35;66.99;100193.63;5055063;28;20090;-61
2022/10/01 04:38:03;;;;;;;30.55;20.80;;;;;;;10.34;66.74;100191.91;5054466;28;20042;-63
2022/10/01 04:40:30;;;;;;;29.10;19.95;;;;;;;10.35;66.87;100196.25;5054632;28;20045;-60
2022/10/01 04:42:56;;;;;;;25.10;18.50;;;;;;;10.36;66.73;100192.69;5057510;28;20491;-62
2022/10/01 04:45:21;;;;;;;24.80;17.02;;;;;;;10.32;66.94;100197.16;5054860;28;20047;-62
2022/10/01 04:47:52;;;;;;;30.27;20.63;;;;;;;10.35;66.88;100199.72;5053692;28;20037;-62
2022/10/01 04:50:18;;;;;;;21.38;15.57;;;;;;;10.33;66.91;100200.66;5054221;28;20033;-62
2022/10/01 04:52:44;;;;;;;27.25;18.92;;;;;;;10.31;67.15;100205.09;5060494;28;20041;-61
2022/10/01 04:55:10;;;;;;;31.40;20.25;;;;;;;10.30;67.03;100209.47;5067282;28;20032;-62
2022/10/01 04:57:36;;;;;;;27.67;18.52;;;;;;;10.31;66.73;100202.47;5060645;28;20071;-63
2022/10/01 05:00:04;;;;;;;37.22;25.92;;;;;;;10.38;66.82;100201.44;5054088;28;20040;-61
2022/10/01 05:02:31;;;;;;;36.88;23.20;;;;;;;10.39;66.49;100207.53;5052328;28;20373;-61
2022/10/01 05:04:57;;;;;;;135.88;72.13;;;;;;;10.42;66.40;100200.44;5053885;28;20483;-61
2022/10/01 05:07:22;;;;;;;98.60;57.70;;;;;;;10.47;66.38;100195.94;5056305;28;20024;-60
2022/10/01 05:09:47;;;;;;;46.65;28.67;;;;;;;10.52;66.26;100203.72;5057186;28;20044;-62
2022/10/01 05:12:13;;;;;;;37.42;23.58;;;;;;;10.58;66.10;100196.56;5052812;28;20451;-62
2022/10/01 05:14:38;;;;;;;32.65;21.23;;;;;;;10.65;65.79;100199.88;5051110;28;20053;-61
2022/10/01 05:17:05;;;;;;;27.13;19.23;;;;;;;10.72;65.71;100196.19;5052788;28;20135;-62
2022/10/01 05:19:31;;;;;;;29.45;19.70;;;;;;;10.88;65.48;100195.81;5057436;28;20059;-63
2022/10/01 05:21:56;;;;;;;30.08;21.23;;;;;;;11.03;64.99;100195.41;5068178;28;20463;-63
2022/10/01 05:24:22;;;;;;;26.52;19.48;;;;;;;11.22;64.65;100196.66;5061119;28;20456;-62
2022/10/01 05:26:48;;;;;;;30.50;19.88;;;;;;;11.45;64.13;100203.03;5053385;28;20032;-62
2022/10/01 05:29:14;;;;;;;26.65;19.48;;;;;;;11.58;63.98;100194.75;5053348;28;20461;-61
2022/10/01 05:31:42;;;;;;;28.05;21.30;;;;;;;11.66;63.75;100198.94;5054735;28;20489;-62
2022/10/01 05:34:08;;;;;;;36.25;25.40;;;;;;;11.70;63.85;100197.94;5053077;28;20045;-60
2022/10/01 05:36:34;;;;;;;32.22;23.13;;;;;;;11.72;63.89;100196.97;5052781;28;20087;-62
2022/10/01 05:38:59;;;;;;;36.17;25.05;;;;;;;11.77;63.80;100183.72;5052626;28;20037;-61
2022/10/01 05:41:24;;;;;;;35.90;25.15;;;;;;;11.78;63.82;100185.44;5053474;28;20125;-61
2022/10/01 05:43:50;;;;;;;37.25;25.25;;;;;;;11.78;64.08;100188.91;5058934;28;20045;-62
2022/10/01 05:46:15;;;;;;;33.50;22.70;;;;;;;11.82;63.97;100177.38;5056635;28;20481;-62
2022/10/01 05:48:41;;;;;;;28.75;21.02;;;;;;;11.81;64.24;100185.34;5051669;28;20033;-61
2022/10/01 05:51:07;;;;;;;28.95;20.05;;;;;;;11.86;64.11;100179.97;5052475;28;20033;-59
2022/10/01 05:53:36;;;;;;;25.70;18.83;;;;;;;11.90;64.22;100178.97;5049271;28;20456;-58
2022/10/01 05:56:02;;;;;;;31.17;22.20;;;;;;;11.96;64.21;100187.53;5046927;28;20029;-62
2022/10/01 05:58:28;;;;;;;35.97;23.10;;;;;;;12.00;64.36;100181.25;5046707;28;20037;-63
2022/10/01 06:00:54;;;;;;;30.27;22.10;;;;;;;12.11;64.26;100175.66;5049033;28;20106;-61
2022/10/01 06:03:20;;;;;;;29.08;20.70;;;;;;;12.21;64.17;100179.75;5052416;28;20041;-61
2022/10/01 06:05:45;;;;;;;31.60;20.50;;;;;;;12.30;64.02;100171.53;5056998;28;20055;-60
2022/10/01 06:08:11;;;;;;;24.42;18.50;;;;;;;12.42;64.15;100182.59;5053039;28;20040;-61
2022/10/01 06:10:37;;;;;;;37.25;20.83;;;;;;;12.54;63.95;100183.06;5051626;28;20044;-61
2022/10/01 06:13:04;;;;;;;25.88;17.15;;;;;;;12.64;64.02;100178.34;5050666;28;20507;-59
2022/10/01 06:15:33;;;;;;;26.60;17.88;;;;;;;12.73;63.95;100171.91;5050359;28;20028;-60
2022/10/01 06:18:05;;;;;;;23.17;17.05;;;;;;;12.90;63.82;100181.88;5051245;28;20078;-61
2022/10/01 06:20:30;;;;;;;25.55;17.75;;;;;;;13.01;63.43;100161.28;5045669;28;20041;-61
2022/10/01 06:22:57;;;;;;;23.58;16.77;;;;;;;13.17;63.17;100162.47;5033673;28;20049;-61
2022/10/01 06:25:23;;;;;;;24.80;17.08;;;;;;;13.26;63.11;100156.03;5045896;28;20499;-62
2022/10/01 06:27:55;;;;;;;23.85;16.35;;;;;;;13.37;62.90;100148.59;5040903;28;20036;-62
2022/10/01 06:30:20;;;;;;;21.90;15.90;;;;;;;13.48;62.58;100150.81;5055032;28;20032;-62
2022/10/01 06:32:46;;;;;;;24.45;17.73;;;;;;;13.58;62.45;100146.06;5071510;28;20035;-61
2022/10/01 06:35:11;;;;;;;25.75;18.15;;;;;;;13.71;62.23;100140.25;5060582;28;20037;-62
2022/10/01 06:37:37;;;;;;;26.23;17.02;;;;;;;13.79;62.15;100138.16;5049989;28;20485;-61
2022/10/01 06:40:04;;;;;;;24.00;16.77;;;;;;;13.95;61.96;100143.72;5070845;28;20033;-62
2022/10/01 06:42:29;;;;;;;24.30;16.73;;;;;;;14.07;61.57;100147.66;5063359;28;20407;-63
2022/10/01 06:44:55;;;;;;;23.00;15.27;;;;;;;14.19;61.64;100143.66;5056135;28;20106;-61
2022/10/01 06:47:20;;;;;;;22.65;15.65;;;;;;;14.30;61.49;100136.16;5052564;28;20041;-61
2022/10/01 06:49:45;;;;;;;23.38;16.80;;;;;;;14.43;61.10;100139.16;5054194;28;20039;-62
2022/10/01 06:54:55;;;;;;;24.48;17.58;;;;;;;14.64;60.59;100143.59;5052887;28;20042;-61
2022/10/01 06:57:20;;;;;;;27.80;17.83;;;;;;;14.74;60.35;100134.34;5060027;28;20040;-61
2022/10/01 06:59:46;;;;;;;24.90;16.88;;;;;;;14.85;60.14;100133.88;5061652;28;20037;-63
2022/10/01 07:02:27;;;;;;;27.05;19.33;;;;;;;14.83;60.74;100122.50;5055211;28;20048;-62
2022/10/01 07:04:55;;;;;;;28.65;19.35;;;;;;;14.95;60.15;100127.25;5044884;28;20029;-61
2022/10/01 07:07:20;;;;;;;25.15;18.02;;;;;;;15.16;59.66;100120.19;5062543;28;20040;-61
2022/10/01 07:09:46;;;;;;;26.90;18.25;;;;;;;15.30;59.58;100123.97;5052582;28;20044;-62
2022/10/01 07:12:11;;;;;;;26.65;19.08;;;;;;;15.41;59.03;100122.56;5053308;28;20037;-62
2022/10/01 07:14:37;;;;;;;23.38;16.92;;;;;;;15.45;58.91;100118.00;5056508;28;20026;-61
2022/10/01 07:17:02;;;;;;;21.38;15.50;;;;;;;15.58;58.85;100113.00;5056661;28;20052;-60
2022/10/01 07:19:27;;;;;;;26.90;17.50;;;;;;;15.67;58.63;100107.28;5051689;28;20473;-61
2022/10/01 07:21:53;;;;;;;23.95;16.50;;;;;;;15.68;58.54;100106.38;5053920;28;20037;-62
2022/10/01 07:24:18;;;;;;;24.23;17.40;;;;;;;15.81;58.09;100104.00;5056530;28;20179;-61
2022/10/01 07:26:43;;;;;;;22.60;15.75;;;;;;;15.92;57.96;100110.50;5056503;28;20399;-62
2022/10/01 07:29:09;;;;;;;15.25;11.20;;;;;;;15.99;57.95;100098.66;5055412;28;20045;-61
2022/10/01 07:31:35;;;;;;;22.23;15.43;;;;;;;16.15;57.55;100084.66;5068392;28;20071;-62
2022/10/01 07:34:00;;;;;;;22.40;14.68;;;;;;;16.28;57.27;100088.44;5062878;28;20115;-62
2022/10/01 07:36:25;;;;;;;17.38;12.63;;;;;;;16.40;57.08;100087.84;5055754;28;20051;-60
2022/10/01 07:38:51;;;;;;;19.55;14.55;;;;;;;16.49;56.40;100087.34;5055216;28;20036;-62
2022/10/01 07:41:16;;;;;;;19.73;14.68;;;;;;;16.55;56.34;100080.88;5053844;28;20059;-62
2022/10/01 07:43:45;;;;;;;18.52;13.45;;;;;;;16.58;56.38;100082.50;5056815;28;20416;-63
2022/10/01 07:46:10;;;;;;;20.92;14.98;;;;;;;16.62;55.95;100081.44;5054607;28;20033;-63
2022/10/01 07:48:36;;;;;;;19.58;14.23;;;;;;;16.65;55.84;100078.63;5056280;28;20047;-63
2022/10/01 07:51:01;;;;;;;22.17;14.15;;;;;;;16.64;55.91;100071.59;5058340;28;20120;-61
2022/10/01 07:53:27;;;;;;;21.30;14.63;;;;;;;16.71;55.77;100068.53;5057163;28;20043;-62
2022/10/01 07:55:52;;;;;;;17.35;13.00;;;;;;;16.67;55.42;100074.06;5058791;28;20029;-63
2022/10/01 07:58:17;;;;;;;20.15;12.75;;;;;;;16.74;55.62;100064.91;5066161;28;20105;-61
2022/10/01 08:00:43;;;;;;;19.48;14.32;;;;;;;16.74;55.38;100064.91;5064416;28;20037;-62
2022/10/01 08:03:11;;;;;;;18.80;13.80;;;;;;;16.78;55.44;100058.50;5051519;28;20051;-59
2022/10/01 08:05:39;;;;;;;16.27;11.43;;;;;;;16.85;55.17;100054.59;5054257;28;20047;-62
2022/10/01 08:08:07;;;;;;;16.55;11.63;;;;;;;16.93;54.61;100044.44;5054326;28;20036;-61
2022/10/01 08:10:35;;;;;;;15.90;10.90;;;;;;;17.06;54.41;100038.47;5059898;28;20093;-63
2022/10/01 08:13:07;;;;;;;15.27;11.38;;;;;;;17.17;53.93;100036.94;5057270;28;20033;-61
2022/10/01 08:15:33;;;;;;;15.70;11.77;;;;;;;17.20;53.80;100039.44;5058581;28;20515;-63
2022/10/01 08:18:03;;;;;;;16.05;12.45;;;;;;;17.26;53.70;100040.03;5062537;28;20567;-63
2022/10/01 08:20:29;;;;;;;19.45;13.40;;;;;;;17.34;53.83;100032.50;5053829;28;20094;-62
2022/10/01 08:23:04;;;;;;;17.73;13.07;;;;;;;17.46;53.27;100040.66;5054444;28;20036;-63
2022/10/01 08:25:30;;;;;;;18.55;13.25;;;;;;;17.57;53.38;100026.78;5050708;28;20029;-62
2022/10/01 08:27:56;;;;;;;16.23;10.70;;;;;;;17.70;53.00;100032.25;5053256;28;20044;-61
2022/10/01 08:30:21;;;;;;;15.23;11.05;;;;;;;17.76;52.35;100028.44;5055016;28;20039;-62
2022/10/01 08:32:46;;;;;;;16.25;11.10;;;;;;;17.80;52.38;100028.19;5054367;28;20032;-62
2022/10/01 08:35:12;;;;;;;12.63;9.60;;;;;;;17.92;52.41;100029.28;5054805;28;20033;-62
2022/10/01 08:37:37;;;;;;;10.50;7.22;;;;;;;18.08;52.05;100021.28;5053706;28;20037;-62
2022/10/01 08:40:03;;;;;;;10.32;7.25;;;;;;;18.14;51.39;100023.56;5048989;28;20033;-62
2022/10/01 08:42:50;;;;;;;10.55;8.48;;;;;;;18.37;51.62;100014.22;5060433;28;20109;-63
2022/10/01 08:45:25;;;;;;;10.35;7.60;;;;;;;19.13;50.68;100006.03;5061845;28;20567;-62
2022/10/01 08:48:02;;;;;;;13.48;9.35;;;;;;;18.72;49.17;100008.63;5045584;28;20043;-61
2022/10/01 08:50:40;;;;;;;8.57;6.38;;;;;;;18.79;50.94;100005.50;5056073;28;20058;-62
2022/10/01 08:53:14;;;;;;;10.70;7.43;;;;;;;18.94;49.91;99998.34;5051726;28;20472;-63
2022/10/01 08:55:40;;;;;;;12.85;8.40;;;;;;;19.04;49.23;99998.66;5051808;28;20123;-62
2022/10/01 08:58:11;;;;;;;10.23;7.63;;;;;;;19.01;49.15;99999.69;5052720;28;20086;-62
2022/10/01 09:00:42;;;;;;;14.57;9.50;;;;;;;19.08;49.18;99989.50;5051960;28;20329;-62
2022/10/01 09:03:11;;;;;;;9.57;6.30;;;;;;;19.11;49.41;99991.97;5053395;28;20025;-62
2022/10/01 09:06:02;;;;;;;12.63;8.07;;;;;;;19.05;48.39;99990.53;5053545;28;20178;-62
2022/10/01 09:08:57;;;;;;;10.52;7.65;;;;;;;19.08;48.73;99989.50;5052002;28;20029;-62
2022/10/01 09:11:46;;;;;;;11.63;6.38;;;;;;;19.05;48.68;99979.91;5019682;28;20045;-62
2022/10/01 09:14:25;;;;;;;8.57;6.47;;;;;;;19.05;48.53;99984.38;5053704;28;20039;-61
2022/10/01 09:17:22;;;;;;;10.05;7.40;;;;;;;19.14;49.81;99973.13;5053363;28;20542;-62
2022/10/01 09:19:53;;;;;;;15.73;9.20;;;;;;;19.28;49.52;99966.94;5053674;28;20025;-61
2022/10/01 09:22:35;;;;;;;14.40;9.52;;;;;;;19.37;49.51;99953.88;5053353;28;20064;-62
2022/10/01 09:25:12;;;;;;;14.68;10.88;;;;;;;19.43;48.83;99955.31;5053456;28;20103;-62
2022/10/01 09:27:38;;;;;;;13.73;10.10;;;;;;;19.51;48.94;99953.00;5053339;28;20461;-62
2022/10/01 09:30:18;;;;;;;11.15;7.88;;;;;;;19.56;48.66;99947.34;5052773;28;20040;-62
2022/10/01 09:32:51;;;;;;;9.75;7.50;;;;;;;19.64;49.49;99940.59;5053078;28;20036;-63
2022/10/01 09:35:19;;;;;;;11.52;8.90;;;;;;;19.78;48.45;99944.13;5053036;28;20059;-63
2022/10/01 09:37:54;;;;;;;10.07;7.80;;;;;;;19.82;48.54;99941.16;5053306;28;20465;-62
2022/10/01 09:40:34;;;;;;;9.73;7.85;;;;;;;20.00;48.18;99935.56;5053407;28;20090;-62
2022/10/01 09:43:01;;;;;;;13.45;8.45;;;;;;;20.03;48.40;99935.34;5053083;28;20040;-62
2022/10/01 09:45:27;;;;;;;13.30;9.30;;;;;;;20.04;48.05;99935.25;5053625;28;20037;-62
2022/10/01 09:48:01;;;;;;;11.18;8.40;;;;;;;20.11;47.75;99922.38;5053529;28;20496;-62
2022/10/01 09:50:38;;;;;;;7.40;5.47;;;;;;;20.21;48.45;99925.25;5053451;28;20025;-62
2022/10/01 09:53:09;;;;;;;7.70;5.78;;;;;;;20.30;48.30;99928.13;5053321;28;20025;-62
2022/10/01 09:55:44;;;;;;;5.95;4.80;;;;;;;20.35;49.13;99926.00;5053668;28;20034;-62
2022/10/01 09:58:21;;;;;;;9.82;7.10;;;;;;;20.27;48.25;99927.50;5055681;28;20478;-62
2022/10/01 10:00:50;;;;;;;9.30;7.00;;;;;;;20.33;48.14;99925.25;5056676;28;20378;-63
2022/10/01 10:03:29;;;;;;;7.60;6.05;;;;;;;20.40;47.17;99912.34;5056544;28;20037;-62
2022/10/01 10:05:58;;;;;;;7.38;5.85;;;;;;;20.59;48.20;99906.59;5056873;28;20036;-62
2022/10/01 10:08:35;;;;;;;9.15;7.43;;;;;;;20.79;45.50;99908.72;5056906;28;20029;-62
2022/10/01 10:11:08;;;;;;;8.50;6.53;;;;;;;20.91;47.44;99899.81;5056879;28;20079;-62
2022/10/01 10:13:37;;;;;;;;;;;;;;;21.08;45.86;99900.41;5057082;28;20112;-62
2022/10/01 10:16:23;;;;;;;11.38;6.88;;;;;;;21.09;44.51;99897.63;5056668;28;19913;-62
2022/10/01 10:18:52;;;;;;;7.78;5.40;;;;;;;21.23;45.86;99893.94;5056957;28;20033;-62
2022/10/01 10:21:26;;;;;;;9.85;6.22;;;;;;;21.35;46.36;99895.75;5056519;28;20072;-59
2022/10/01 10:23:58;;;;;;;10.35;6.78;;;;;;;21.42;45.48;99895.28;5036112;28;20044;-61
2022/10/01 10:26:31;;;;;;;10.05;6.93;;;;;;;21.53;44.62;99890.00;5052903;28;20048;-63
2022/10/01 10:28:58;;;;;;;8.07;6.25;;;;;;;21.72;45.27;99890.31;5057389;28;20032;-62
2022/10/01 10:31:27;;;;;;;6.97;5.13;;;;;;;21.85;45.54;99885.72;5065294;28;20040;-62
2022/10/01 10:34:12;;;;;;;8.35;5.82;;;;;;;21.84;45.17;99886.72;5057343;28;20082;-63
2022/10/01 10:36:40;;;;;;;7.80;5.85;;;;;;;21.82;45.26;99880.63;5052807;28;20469;-63
2022/10/01 10:39:24;;;;;;;8.38;6.20;;;;;;;21.77;45.57;99880.13;5059022;28;20052;-62
2022/10/01 10:41:52;;;;;;;8.50;5.22;;;;;;;21.83;45.33;99868.97;5071820;28;20492;-63
2022/10/01 10:44:23;;;;;;;7.00;5.68;;;;;;;21.82;44.99;99869.94;5071084;28;20040;-62
2022/10/01 10:46:50;;;;;;;7.57;5.75;;;;;;;21.97;44.81;99867.03;5069226;28;20033;-63
2022/10/01 10:49:28;;;;;;;8.75;6.00;;;;;;;21.97;44.32;99861.69;5061420;28;20032;-63
2022/10/01 10:51:55;;;;;;;7.95;5.97;;;;;;;22.06;44.35;99869.00;5054818;28;20028;-63
2022/10/01 10:54:23;;;;;;;7.88;5.00;;;;;;;22.19;45.26;99858.25;5063299;28;20028;-63
2022/10/01 10:56:54;;;;;;;10.95;5.13;;;;;;;22.44;44.40;99859.84;5067525;28;20032;-63
2022/10/01 10:59:21;;;;;;;7.20;4.70;;;;;;;22.54;44.57;99848.28;5068757;28;20510;-61
2022/10/01 11:01:48;;;;;;;5.35;4.63;;;;;;;22.55;44.02;99851.81;5035078;28;20046;-64
2022/10/01 11:04:25;;;;;;;10.25;4.18;;;;;;;22.55;43.79;99846.47;5052618;28;20052;-62
2022/10/01 11:06:56;;;;;;;10.40;5.90;;;;;;;22.48;43.31;99838.06;5058655;28;20475;-63
2022/10/01 11:09:26;;;;;;;9.65;5.80;;;;;;;22.55;43.77;99838.44;5053061;28;20028;-62
2022/10/01 11:12:10;;;;;;;6.45;4.90;;;;;;;22.60;41.91;99830.88;5070529;28;20040;-63
2022/10/01 11:14:44;;;;;;;8.23;5.32;;;;;;;22.67;43.33;99816.03;5069827;28;20036;-63
2022/10/01 11:17:56;;;;;;;7.72;4.88;;;;;;;22.71;41.93;99814.81;5071609;28;20064;-62
2022/10/01 11:20:35;;;;;;;6.43;4.68;;;;;;;23.09;42.72;99813.50;5052955;28;20083;-64
2022/10/01 11:23:07;;;;;;;8.27;5.20;;;;;;;23.24;41.99;99804.19;5046300;28;20040;-64
2022/10/01 11:25:32;;;;;;;5.68;4.38;;;;;;;23.41;41.71;99809.97;5059619;28;20458;-64
2022/10/01 11:28:52;;;;;;;7.38;5.00;;;;;;;23.50;39.53;99803.81;5057277;28;20108;-63